Domov               UVHVVR             MKGP            O straneh              
ZDRAVSTVENO VARSTVO RASTLIN
  MREŽA AGROMET. POSTAJ
 ► PROGNOSTIČNA OBVESTILA
AGROMETEOROLOŠKI PODATKI -
ARSO
OBVLADOVANJE TVEGANJ ZARADI
NEUGODNIH VREMENSKIH RAZMER
  ► NARAVNE NESREČE
  ► SUŠA/MOČA
  ► NAMAKANJE
  ► ŽLED (gozdarstvo)
KARTOGRAFSKI PRIKAZI
SPLETNE POVEZAVE
PROJEKTI IN PUBLIKACIJE

AGROMETEOROLOŠKA MREŽA: VREMENSKE POSTAJE IN FENOLOŠKA OPAZOVANJA

Pregled podatkov za lokacijo Šentjernej APS, meteorološka postaja 49205

Pregled senzorjev na lokaciji

ID Ime Zadnja
vrednost
Datum
zadnje
spremembe
Tip
senzorja
3728 Temperatura 2 m ( °C) 28,55 °C 28.6.2017 17:00 50YA
3729 Relativna vlaga 2 m (% RH) 52,71 % RH 28.6.2017 17:00 50YA
3730 Omočenost lista (U) 0 U 28.6.2017 17:00 A730WET
3731 Sončno sevanje (W/m2) 223,42 W/m2 28.6.2017 17:00 Pyranometer SP-Lite
3733 Hitrost vetra (km/h) 15,2 km/h 28.6.2017 17:00 566.2S-176 (200km/h)
3734 Smer vetra (°) 331,8 ° 28.6.2017 17:00 566.2S-130
3735 Padavine 0.2 mm (mm) 0 mm 28.6.2017 17:00 Rain-O-Matic

Pregled podatkov zadnjih 24 ur

Zap.
št.
Datum in čas Šentjernej APS
Hitrost
vetra
Omočenost
lista
Padavine
0.2
mm
Relativna
vlaga
2
m
Smer
vetra
Sončno
sevanje
Temperatura
2
m
0 28.6.2017 16:00 15,2 0 0 52,71 331,8 223,42 28,55
1 28.6.2017 15:30 13,52 0 0 49,23 315,06 400,12 29,25
2 28.6.2017 15:00 13,56 0 0 50,24 328,42 118,9 28,79
3 28.6.2017 14:30 11,31 0 0 50,03 278,15 496,13 30,96
4 28.6.2017 14:00 8,26 0 0 55,25 76,22 553,08 30,08
5 28.6.2017 13:30 10,09 0 0 50,42 4,15 771,47 30,68
6 28.6.2017 13:00 12,81 0 0 59,97 309,7 435,03 27,81
7 28.6.2017 12:30 12,29 1 0 52,25 331,39 376,29 29,93
8 28.6.2017 12:00 11,13 0 0 49,31 303,16 728,13 31,12
9 28.6.2017 11:30 13,38 0 0 50,37 312,26 842,82 30,79
10 28.6.2017 11:00 12,63 0 0 52,45 275,06 855,33 29,93
11 28.6.2017 10:30 10,63 0 0 54,07 320,37 797,19 29,41
12 28.6.2017 10:00 5,91 0 0 58,85 321,87 696,36 28,36
13 28.6.2017 09:30 4,52 0 0 64,49 128,44 606,15 26,93
14 28.6.2017 09:00 4,42 0 0 67,85 26,46 588,05 26,24
15 28.6.2017 08:30 4,78 0 0 70,35 36,4 643,99 25,54
16 28.6.2017 08:00 3,94 0 0 76,73 176,34 466,53 23,79
17 28.6.2017 07:30 2,57 0 0 80,67 115,68 368,96 22,96
18 28.6.2017 07:00 2,7 0 0 84,82 160,98 214,27 21,81
19 28.6.2017 06:30 1,41 0 0 87,63 57,17 255,31 20,95
20 28.6.2017 06:00 1,39 2 0 95,56 195,26 140,47 18,9
21 28.6.2017 05:30 0,07 10 0 97,1 81,96 89,78 18,25
22 28.6.2017 05:00 3,53 10 0 99,86 139,51 34,7 17,27
23 28.6.2017 04:30 2,86 10 0 99,71 257,15 8,03 16,84
24 28.6.2017 04:00 1,26 10 0 98,89 311,2 0,92 16,88
25 28.6.2017 03:30 1,66 10 0 97,58 235,66 0,37 17,03
26 28.6.2017 03:00 0,51 10 0 96,07 96,98 0,31 17,46
27 28.6.2017 02:30 3,02 10 0 95,77 238,68 0,31 17,56
28 28.6.2017 02:00 2,39 10 0 93,85 228,66 0,34 17,73
29 28.6.2017 01:30 2,94 10 0 92,39 312,17 0,34 17,95
30 28.6.2017 01:00 3,43 10 0 91,8 204,85 0,31 18,02
31 28.6.2017 00:30 4,05 10 0 92,35 237,41 0,34 17,88
32 28.6.2017 00:00 2,07 10 0 90,77 234,85 18,17
33 27.6.2017 23:30 2,45 10 0 89,69 250,12 18,34
34 27.6.2017 23:00 2,84 7 0 88,5 231,15 18,66
35 27.6.2017 22:30 2,61 3 0 86,22 238,76 0,31 19,21
36 27.6.2017 22:00 5,27 3 0 86,34 272,76 0,31 19,3
37 27.6.2017 21:30 5,69 4 0 88,15 226,26 0,34 19,35
38 27.6.2017 21:00 5,33 4 0 87,65 226,79 0,31 19,95
39 27.6.2017 20:30 4,69 3 0 84,99 240,8 0,64 20,84
40 27.6.2017 20:00 3,05 1 0 78,89 224,06 6,01 22,06
41 27.6.2017 19:30 3,43 0 0 67,16 204,6 22,31 24,1
42 27.6.2017 19:00 1,36 0 0 60,98 117,19 41,17 25,73
43 27.6.2017 18:30 3,68 0 0 59,24 25,9 49,59 26,45
44 27.6.2017 18:00 4,69 0 0 58,17 340,05 148,93 26,66
© 2011 Ministrstvo za kmetijstvo, gozdarstvo in prehrano. Vse pravice pridržane.